sensor_id;sensor_type;location;lat;lon;timestamp;temperature;humidity
15937;DHT22;9163;48.818;8.976;2023-04-06T00:01:19;0.90;57.00
15937;DHT22;9163;48.818;8.976;2023-04-06T00:03:46;0.80;53.70
15937;DHT22;9163;48.818;8.976;2023-04-06T00:06:14;0.80;72.50
15937;DHT22;9163;48.818;8.976;2023-04-06T00:08:41;0.70;72.80
15937;DHT22;9163;48.818;8.976;2023-04-06T00:11:10;0.70;74.60
15937;DHT22;9163;48.818;8.976;2023-04-06T00:13:37;0.70;83.10
15937;DHT22;9163;48.818;8.976;2023-04-06T00:16:05;0.60;90.70
15937;DHT22;9163;48.818;8.976;2023-04-06T00:18:33;0.60;94.10
15937;DHT22;9163;48.818;8.976;2023-04-06T00:21:00;0.60;74.70
15937;DHT22;9163;48.818;8.976;2023-04-06T00:23:27;0.60;95.90
15937;DHT22;9163;48.818;8.976;2023-04-06T00:25:55;0.60;97.80
15937;DHT22;9163;48.818;8.976;2023-04-06T00:28:24;0.60;83.10
15937;DHT22;9163;48.818;8.976;2023-04-06T00:30:52;0.50;82.90
15937;DHT22;9163;48.818;8.976;2023-04-06T00:33:21;0.50;86.50
15937;DHT22;9163;48.818;8.976;2023-04-06T00:35:49;0.50;85.90
15937;DHT22;9163;48.818;8.976;2023-04-06T00:38:16;0.40;79.10
15937;DHT22;9163;48.818;8.976;2023-04-06T00:40:43;0.40;90.10
15937;DHT22;9163;48.818;8.976;2023-04-06T00:43:11;0.50;92.00
15937;DHT22;9163;48.818;8.976;2023-04-06T00:45:41;0.40;81.60
15937;DHT22;9163;48.818;8.976;2023-04-06T00:48:09;0.40;88.10
15937;DHT22;9163;48.818;8.976;2023-04-06T00:50:36;0.40;90.80
15937;DHT22;9163;48.818;8.976;2023-04-06T00:53:03;0.40;88.30
15937;DHT22;9163;48.818;8.976;2023-04-06T00:55:31;0.30;95.60
15937;DHT22;9163;48.818;8.976;2023-04-06T00:57:59;0.30;93.50
15937;DHT22;9163;48.818;8.976;2023-04-06T01:00:26;0.30;95.40
15937;DHT22;9163;48.818;8.976;2023-04-06T01:02:55;0.20;97.60
15937;DHT22;9163;48.818;8.976;2023-04-06T01:05:22;0.10;99.90
15937;DHT22;9163;48.818;8.976;2023-04-06T01:07:50;0.10;99.90
15937;DHT22;9163;48.818;8.976;2023-04-06T01:10:24;0.00;99.90
15937;DHT22;9163;48.818;8.976;2023-04-06T01:12:51;0.00;99.90
15937;DHT22;9163;48.818;8.976;2023-04-06T01:15:19;-0.10;99.90
15937;DHT22;9163;48.818;8.976;2023-04-06T01:17:47;-0.20;99.90
15937;DHT22;9163;48.818;8.976;2023-04-06T01:20:15;-0.20;99.90
15937;DHT22;9163;48.818;8.976;2023-04-06T01:22:44;-0.20;99.90
15937;DHT22;9163;48.818;8.976;2023-04-06T01:25:11;-0.20;99.90
15937;DHT22;9163;48.818;8.976;2023-04-06T01:27:39;-0.30;99.90
15937;DHT22;9163;48.818;8.976;2023-04-06T01:30:07;-0.30;99.90
15937;DHT22;9163;48.818;8.976;2023-04-06T01:32:34;-0.30;99.90
15937;DHT22;9163;48.818;8.976;2023-04-06T01:35:02;-0.20;99.90
15937;DHT22;9163;48.818;8.976;2023-04-06T01:37:29;-0.20;99.90
15937;DHT22;9163;48.818;8.976;2023-04-06T01:40:00;-0.20;99.90
15937;DHT22;9163;48.818;8.976;2023-04-06T01:42:27;-0.20;99.90
15937;DHT22;9163;48.818;8.976;2023-04-06T01:44:56;-0.20;99.90
15937;DHT22;9163;48.818;8.976;2023-04-06T01:47:23;-0.20;99.90
15937;DHT22;9163;48.818;8.976;2023-04-06T01:49:50;-0.20;99.90
15937;DHT22;9163;48.818;8.976;2023-04-06T01:52:18;-0.20;99.90
15937;DHT22;9163;48.818;8.976;2023-04-06T01:54:45;-0.20;99.90
15937;DHT22;9163;48.818;8.976;2023-04-06T01:57:14;-0.30;99.90
15937;DHT22;9163;48.818;8.976;2023-04-06T01:59:41;-0.30;99.90
15937;DHT22;9163;48.818;8.976;2023-04-06T02:02:08;-0.40;99.90
15937;DHT22;9163;48.818;8.976;2023-04-06T02:04:36;-0.40;99.90
15937;DHT22;9163;48.818;8.976;2023-04-06T02:07:03;-0.40;99.90
15937;DHT22;9163;48.818;8.976;2023-04-06T02:09:30;-0.40;99.90
15937;DHT22;9163;48.818;8.976;2023-04-06T02:11:58;-0.50;99.90
15937;DHT22;9163;48.818;8.976;2023-04-06T02:14:27;-0.50;99.90
15937;DHT22;9163;48.818;8.976;2023-04-06T02:16:55;-0.50;99.90
15937;DHT22;9163;48.818;8.976;2023-04-06T02:19:22;-0.50;99.90
15937;DHT22;9163;48.818;8.976;2023-04-06T02:21:49;-0.50;99.90
15937;DHT22;9163;48.818;8.976;2023-04-06T02:24:17;-0.50;99.90
15937;DHT22;9163;48.818;8.976;2023-04-06T02:26:44;-0.60;99.90
15937;DHT22;9163;48.818;8.976;2023-04-06T02:29:11;-0.60;99.90
15937;DHT22;9163;48.818;8.976;2023-04-06T02:31:40;-0.60;99.90
15937;DHT22;9163;48.818;8.976;2023-04-06T02:34:07;-0.60;99.90
15937;DHT22;9163;48.818;8.976;2023-04-06T02:36:37;-0.60;99.90
15937;DHT22;9163;48.818;8.976;2023-04-06T02:39:05;-0.60;99.90
15937;DHT22;9163;48.818;8.976;2023-04-06T02:41:32;-0.60;99.90
15937;DHT22;9163;48.818;8.976;2023-04-06T02:43:59;-0.60;99.90
15937;DHT22;9163;48.818;8.976;2023-04-06T02:46:27;-0.60;99.90
15937;DHT22;9163;48.818;8.976;2023-04-06T02:48:55;-0.60;99.90
15937;DHT22;9163;48.818;8.976;2023-04-06T02:51:23;-0.60;99.90
15937;DHT22;9163;48.818;8.976;2023-04-06T02:53:50;-0.60;99.90
15937;DHT22;9163;48.818;8.976;2023-04-06T02:56:17;-0.60;99.90
15937;DHT22;9163;48.818;8.976;2023-04-06T02:58:45;-0.60;99.90
15937;DHT22;9163;48.818;8.976;2023-04-06T03:01:12;-0.60;99.90
15937;DHT22;9163;48.818;8.976;2023-04-06T03:03:39;-0.60;99.90
15937;DHT22;9163;48.818;8.976;2023-04-06T03:06:08;-0.60;99.90
15937;DHT22;9163;48.818;8.976;2023-04-06T03:08:35;-0.60;99.90
15937;DHT22;9163;48.818;8.976;2023-04-06T03:11:03;-0.70;99.90
15937;DHT22;9163;48.818;8.976;2023-04-06T03:13:30;-0.70;99.90
15937;DHT22;9163;48.818;8.976;2023-04-06T03:15:57;-0.80;99.90
15937;DHT22;9163;48.818;8.976;2023-04-06T03:18:25;-0.80;99.90
15937;DHT22;9163;48.818;8.976;2023-04-06T03:20:52;-0.90;99.90
15937;DHT22;9163;48.818;8.976;2023-04-06T03:23:22;-1.00;99.90
15937;DHT22;9163;48.818;8.976;2023-04-06T03:25:49;-1.10;99.90
15937;DHT22;9163;48.818;8.976;2023-04-06T03:28:16;-1.00;99.90
15937;DHT22;9163;48.818;8.976;2023-04-06T03:30:44;-1.00;99.90
15937;DHT22;9163;48.818;8.976;2023-04-06T03:33:12;-1.10;99.90
15937;DHT22;9163;48.818;8.976;2023-04-06T03:35:39;-1.10;99.90
15937;DHT22;9163;48.818;8.976;2023-04-06T03:38:06;-1.10;99.90
15937;DHT22;9163;48.818;8.976;2023-04-06T03:40:35;-1.00;99.90
15937;DHT22;9163;48.818;8.976;2023-04-06T03:43:03;-1.10;99.90
15937;DHT22;9163;48.818;8.976;2023-04-06T03:45:31;-1.10;99.90
15937;DHT22;9163;48.818;8.976;2023-04-06T03:47:58;-1.20;99.90
15937;DHT22;9163;48.818;8.976;2023-04-06T03:50:25;-1.20;99.90
15937;DHT22;9163;48.818;8.976;2023-04-06T03:52:53;-1.20;99.90
15937;DHT22;9163;48.818;8.976;2023-04-06T03:55:20;-1.10;99.90
15937;DHT22;9163;48.818;8.976;2023-04-06T03:57:49;-1.10;99.90
15937;DHT22;9163;48.818;8.976;2023-04-06T04:00:16;-1.10;99.90
15937;DHT22;9163;48.818;8.976;2023-04-06T04:02:43;-1.10;99.90
15937;DHT22;9163;48.818;8.976;2023-04-06T04:05:11;-1.20;99.90
15937;DHT22;9163;48.818;8.976;2023-04-06T04:07:38;-1.20;99.90
15937;DHT22;9163;48.818;8.976;2023-04-06T04:10:06;-1.20;99.90
15937;DHT22;9163;48.818;8.976;2023-04-06T04:12:33;-1.10;99.90
15937;DHT22;9163;48.818;8.976;2023-04-06T04:15:03;-1.20;99.90
15937;DHT22;9163;48.818;8.976;2023-04-06T04:17:30;-1.30;99.90
15937;DHT22;9163;48.818;8.976;2023-04-06T04:19:57;-1.20;99.90
15937;DHT22;9163;48.818;8.976;2023-04-06T04:22:24;-1.30;99.90
15937;DHT22;9163;48.818;8.976;2023-04-06T04:24:53;-1.30;99.90
15937;DHT22;9163;48.818;8.976;2023-04-06T04:27:21;-1.30;99.90
15937;DHT22;9163;48.818;8.976;2023-04-06T04:29:48;-1.20;99.90
15937;DHT22;9163;48.818;8.976;2023-04-06T04:32:17;-1.20;99.90
15937;DHT22;9163;48.818;8.976;2023-04-06T04:34:44;-1.10;99.90
15937;DHT22;9163;48.818;8.976;2023-04-06T04:37:11;-1.10;99.90
15937;DHT22;9163;48.818;8.976;2023-04-06T04:39:39;-1.10;99.90
15937;DHT22;9163;48.818;8.976;2023-04-06T04:42:06;-1.10;99.90
15937;DHT22;9163;48.818;8.976;2023-04-06T04:44:34;-1.10;99.90
15937;DHT22;9163;48.818;8.976;2023-04-06T04:47:01;-1.10;99.90
15937;DHT22;9163;48.818;8.976;2023-04-06T04:49:30;-1.10;99.90
15937;DHT22;9163;48.818;8.976;2023-04-06T04:51:57;-1.10;99.90
15937;DHT22;9163;48.818;8.976;2023-04-06T04:54:24;-1.10;99.90
15937;DHT22;9163;48.818;8.976;2023-04-06T04:56:52;-0.90;99.90
15937;DHT22;9163;48.818;8.976;2023-04-06T04:59:19;-0.90;99.90
15937;DHT22;9163;48.818;8.976;2023-04-06T05:01:47;-0.80;99.90
15937;DHT22;9163;48.818;8.976;2023-04-06T05:04:14;-0.70;99.90
15937;DHT22;9163;48.818;8.976;2023-04-06T05:06:43;-0.70;99.90
15937;DHT22;9163;48.818;8.976;2023-04-06T05:09:10;-0.70;99.90
15937;DHT22;9163;48.818;8.976;2023-04-06T05:11:37;-0.60;99.90
15937;DHT22;9163;48.818;8.976;2023-04-06T05:14:05;-0.60;99.90
15937;DHT22;9163;48.818;8.976;2023-04-06T05:16:34;-0.50;99.90
15937;DHT22;9163;48.818;8.976;2023-04-06T05:19:02;-0.50;99.90
15937;DHT22;9163;48.818;8.976;2023-04-06T05:21:29;-0.50;99.90
15937;DHT22;9163;48.818;8.976;2023-04-06T05:23:59;-0.50;99.90
15937;DHT22;9163;48.818;8.976;2023-04-06T05:26:28;-0.50;99.90
15937;DHT22;9163;48.818;8.976;2023-04-06T05:28:55;-0.50;99.90
15937;DHT22;9163;48.818;8.976;2023-04-06T05:31:23;-0.40;99.90
15937;DHT22;9163;48.818;8.976;2023-04-06T05:33:50;-0.30;99.90
15937;DHT22;9163;48.818;8.976;2023-04-06T05:36:17;-0.20;99.90
15937;DHT22;9163;48.818;8.976;2023-04-06T05:38:45;-0.10;99.90
15937;DHT22;9163;48.818;8.976;2023-04-06T05:41:14;-0.10;99.90
15937;DHT22;9163;48.818;8.976;2023-04-06T05:43:41;-0.10;99.90
15937;DHT22;9163;48.818;8.976;2023-04-06T05:46:09;0.00;99.90
15937;DHT22;9163;48.818;8.976;2023-04-06T05:48:36;0.00;99.90
15937;DHT22;9163;48.818;8.976;2023-04-06T05:51:03;0.00;99.90
15937;DHT22;9163;48.818;8.976;2023-04-06T05:53:32;0.10;99.90
15937;DHT22;9163;48.818;8.976;2023-04-06T05:56:00;0.10;99.90
15937;DHT22;9163;48.818;8.976;2023-04-06T05:58:30;0.20;96.40
15937;DHT22;9163;48.818;8.976;2023-04-06T06:00:57;0.30;98.20
15937;DHT22;9163;48.818;8.976;2023-04-06T06:03:24;0.40;98.40
15937;DHT22;9163;48.818;8.976;2023-04-06T06:05:52;0.60;98.90
15937;DHT22;9163;48.818;8.976;2023-04-06T06:08:19;0.70;96.80
15937;DHT22;9163;48.818;8.976;2023-04-06T06:10:46;0.80;95.40
15937;DHT22;9163;48.818;8.976;2023-04-06T06:13:14;0.90;92.50
15937;DHT22;9163;48.818;8.976;2023-04-06T06:15:43;1.00;92.70
15937;DHT22;9163;48.818;8.976;2023-04-06T06:18:10;1.10;88.00
15937;DHT22;9163;48.818;8.976;2023-04-06T06:20:37;1.20;81.20
15937;DHT22;9163;48.818;8.976;2023-04-06T06:23:05;1.40;74.30
15937;DHT22;9163;48.818;8.976;2023-04-06T06:25:32;1.50;70.60
15937;DHT22;9163;48.818;8.976;2023-04-06T06:27:59;1.70;70.20
15937;DHT22;9163;48.818;8.976;2023-04-06T06:30:27;1.80;62.50
15937;DHT22;9163;48.818;8.976;2023-04-06T06:32:55;1.80;43.10
15937;DHT22;9163;48.818;8.976;2023-04-06T06:35:23;1.90;40.60
15937;DHT22;9163;48.818;8.976;2023-04-06T06:37:50;1.80;45.10
15937;DHT22;9163;48.818;8.976;2023-04-06T06:40:17;1.90;44.10
15937;DHT22;9163;48.818;8.976;2023-04-06T06:42:46;2.10;46.10
15937;DHT22;9163;48.818;8.976;2023-04-06T06:45:13;2.30;38.80
15937;DHT22;9163;48.818;8.976;2023-04-06T06:47:40;2.30;23.00
15937;DHT22;9163;48.818;8.976;2023-04-06T06:50:09;2.40;24.70
15937;DHT22;9163;48.818;8.976;2023-04-06T06:52:37;2.60;20.00
15937;DHT22;9163;48.818;8.976;2023-04-06T06:55:05;2.80;13.90
15937;DHT22;9163;48.818;8.976;2023-04-06T06:57:32;2.90;15.10
15937;DHT22;9163;48.818;8.976;2023-04-06T06:59:59;3.30;14.00
15937;DHT22;9163;48.818;8.976;2023-04-06T07:02:27;3.50;5.80
15937;DHT22;9163;48.818;8.976;2023-04-06T07:04:54;3.60;1.00
15937;DHT22;9163;48.818;8.976;2023-04-06T07:07:23;3.70;1.00
15937;DHT22;9163;48.818;8.976;2023-04-06T07:09:50;3.90;1.00
15937;DHT22;9163;48.818;8.976;2023-04-06T07:12:17;4.10;1.00
15937;DHT22;9163;48.818;8.976;2023-04-06T07:14:45;4.40;1.00
15937;DHT22;9163;48.818;8.976;2023-04-06T07:17:12;4.70;1.00
15937;DHT22;9163;48.818;8.976;2023-04-06T07:19:39;4.90;1.00
15937;DHT22;9163;48.818;8.976;2023-04-06T07:22:07;5.10;1.00
15937;DHT22;9163;48.818;8.976;2023-04-06T07:24:35;5.20;1.00
15937;DHT22;9163;48.818;8.976;2023-04-06T07:27:03;5.50;1.00
15937;DHT22;9163;48.818;8.976;2023-04-06T07:29:30;5.50;1.00
15937;DHT22;9163;48.818;8.976;2023-04-06T07:31:58;5.90;1.00
15937;DHT22;9163;48.818;8.976;2023-04-06T07:34:25;5.90;1.00
15937;DHT22;9163;48.818;8.976;2023-04-06T07:36:52;5.70;1.00
15937;DHT22;9163;48.818;8.976;2023-04-06T07:39:23;5.90;1.00
15937;DHT22;9163;48.818;8.976;2023-04-06T07:41:53;5.90;1.00
15937;DHT22;9163;48.818;8.976;2023-04-06T07:44:21;6.30;1.00
15937;DHT22;9163;48.818;8.976;2023-04-06T07:46:48;6.50;1.00
15937;DHT22;9163;48.818;8.976;2023-04-06T07:49:15;6.60;1.00
15937;DHT22;9163;48.818;8.976;2023-04-06T07:51:43;6.60;1.00
15937;DHT22;9163;48.818;8.976;2023-04-06T07:54:10;7.00;1.00
15937;DHT22;9163;48.818;8.976;2023-04-06T07:56:37;7.20;1.00
15937;DHT22;9163;48.818;8.976;2023-04-06T07:59:06;7.30;1.00
15937;DHT22;9163;48.818;8.976;2023-04-06T08:01:34;7.40;1.00
15937;DHT22;9163;48.818;8.976;2023-04-06T08:04:01;7.60;1.00
15937;DHT22;9163;48.818;8.976;2023-04-06T08:06:29;7.80;1.00
15937;DHT22;9163;48.818;8.976;2023-04-06T08:08:56;8.30;1.00
15937;DHT22;9163;48.818;8.976;2023-04-06T08:11:23;8.60;1.00
15937;DHT22;9163;48.818;8.976;2023-04-06T08:13:53;9.10;1.00
15937;DHT22;9163;48.818;8.976;2023-04-06T08:16:23;9.10;1.00
15937;DHT22;9163;48.818;8.976;2023-04-06T08:18:50;9.20;1.00
15937;DHT22;9163;48.818;8.976;2023-04-06T08:21:18;9.90;1.00
15937;DHT22;9163;48.818;8.976;2023-04-06T08:23:45;10.20;1.00
15937;DHT22;9163;48.818;8.976;2023-04-06T08:26:13;10.50;1.00
15937;DHT22;9163;48.818;8.976;2023-04-06T08:28:40;10.90;1.00
15937;DHT22;9163;48.818;8.976;2023-04-06T08:31:07;11.40;1.00
15937;DHT22;9163;48.818;8.976;2023-04-06T08:33:36;11.40;1.00
15937;DHT22;9163;48.818;8.976;2023-04-06T08:36:12;11.60;1.00
15937;DHT22;9163;48.818;8.976;2023-04-06T08:38:40;11.10;1.00
15937;DHT22;9163;48.818;8.976;2023-04-06T08:41:09;11.60;1.00
15937;DHT22;9163;48.818;8.976;2023-04-06T08:43:41;12.30;1.00
15937;DHT22;9163;48.818;8.976;2023-04-06T08:46:10;12.40;1.00
15937;DHT22;9163;48.818;8.976;2023-04-06T08:48:41;12.50;1.00
15937;DHT22;9163;48.818;8.976;2023-04-06T08:51:08;12.50;1.00
15937;DHT22;9163;48.818;8.976;2023-04-06T08:53:36;13.10;1.00
15937;DHT22;9163;48.818;8.976;2023-04-06T08:56:04;13.40;1.00
15937;DHT22;9163;48.818;8.976;2023-04-06T08:58:35;13.50;1.00
15937;DHT22;9163;48.818;8.976;2023-04-06T09:01:07;13.60;1.00
15937;DHT22;9163;48.818;8.976;2023-04-06T09:03:39;13.60;1.00
15937;DHT22;9163;48.818;8.976;2023-04-06T09:06:08;13.20;1.00
15937;DHT22;9163;48.818;8.976;2023-04-06T09:08:37;13.00;1.00
15937;DHT22;9163;48.818;8.976;2023-04-06T09:11:05;13.10;1.00
15937;DHT22;9163;48.818;8.976;2023-04-06T09:13:44;13.60;1.00
15937;DHT22;9163;48.818;8.976;2023-04-06T09:16:12;14.30;1.00
15937;DHT22;9163;48.818;8.976;2023-04-06T09:18:40;14.20;1.00
15937;DHT22;9163;48.818;8.976;2023-04-06T09:21:09;13.20;1.00
15937;DHT22;9163;48.818;8.976;2023-04-06T09:23:36;13.70;1.00
15937;DHT22;9163;48.818;8.976;2023-04-06T09:26:08;14.20;1.00
15937;DHT22;9163;48.818;8.976;2023-04-06T09:28:42;14.60;1.00
15937;DHT22;9163;48.818;8.976;2023-04-06T09:31:09;15.10;1.00
15937;DHT22;9163;48.818;8.976;2023-04-06T09:33:40;15.40;1.00
15937;DHT22;9163;48.818;8.976;2023-04-06T09:36:08;15.30;1.00
15937;DHT22;9163;48.818;8.976;2023-04-06T09:38:37;15.50;1.00
15937;DHT22;9163;48.818;8.976;2023-04-06T09:41:05;14.50;1.00
15937;DHT22;9163;48.818;8.976;2023-04-06T09:43:32;14.50;1.00
15937;DHT22;9163;48.818;8.976;2023-04-06T09:46:01;14.90;1.00
15937;DHT22;9163;48.818;8.976;2023-04-06T09:48:31;14.60;1.00
15937;DHT22;9163;48.818;8.976;2023-04-06T09:51:04;14.50;1.00
15937;DHT22;9163;48.818;8.976;2023-04-06T09:53:35;14.70;1.00
15937;DHT22;9163;48.818;8.976;2023-04-06T09:56:06;14.40;1.00
15937;DHT22;9163;48.818;8.976;2023-04-06T09:58:37;14.70;1.00
15937;DHT22;9163;48.818;8.976;2023-04-06T10:01:09;15.30;1.00
15937;DHT22;9163;48.818;8.976;2023-04-06T10:03:44;15.90;1.00
15937;DHT22;9163;48.818;8.976;2023-04-06T10:06:22;15.90;1.00
15937;DHT22;9163;48.818;8.976;2023-04-06T10:08:52;15.20;1.00
15937;DHT22;9163;48.818;8.976;2023-04-06T10:11:25;14.50;1.00
15937;DHT22;9163;48.818;8.976;2023-04-06T10:13:56;14.80;1.00
15937;DHT22;9163;48.818;8.976;2023-04-06T10:16:24;14.60;1.00
15937;DHT22;9163;48.818;8.976;2023-04-06T10:18:57;15.10;1.00
15937;DHT22;9163;48.818;8.976;2023-04-06T10:21:28;16.20;1.00
15937;DHT22;9163;48.818;8.976;2023-04-06T10:23:59;16.90;1.00
15937;DHT22;9163;48.818;8.976;2023-04-06T10:26:27;15.90;1.00
15937;DHT22;9163;48.818;8.976;2023-04-06T10:28:55;15.30;1.00
15937;DHT22;9163;48.818;8.976;2023-04-06T10:31:26;15.60;1.00
15937;DHT22;9163;48.818;8.976;2023-04-06T10:33:54;15.90;1.00
15937;DHT22;9163;48.818;8.976;2023-04-06T10:36:24;15.70;1.00
15937;DHT22;9163;48.818;8.976;2023-04-06T10:38:58;15.40;1.00
15937;DHT22;9163;48.818;8.976;2023-04-06T10:41:32;15.70;1.00
15937;DHT22;9163;48.818;8.976;2023-04-06T10:44:00;15.50;1.00
15937;DHT22;9163;48.818;8.976;2023-04-06T10:46:30;15.60;1.00
15937;DHT22;9163;48.818;8.976;2023-04-06T10:48:57;15.40;1.00
15937;DHT22;9163;48.818;8.976;2023-04-06T10:51:27;16.10;1.00
15937;DHT22;9163;48.818;8.976;2023-04-06T10:53:56;17.20;1.00
15937;DHT22;9163;48.818;8.976;2023-04-06T10:56:25;17.50;1.00
15937;DHT22;9163;48.818;8.976;2023-04-06T10:58:54;17.20;1.00
15937;DHT22;9163;48.818;8.976;2023-04-06T11:01:24;17.60;1.00
15937;DHT22;9163;48.818;8.976;2023-04-06T11:03:53;17.60;1.00
15937;DHT22;9163;48.818;8.976;2023-04-06T11:06:22;17.90;1.00
15937;DHT22;9163;48.818;8.976;2023-04-06T11:08:50;18.10;1.00
15937;DHT22;9163;48.818;8.976;2023-04-06T11:11:20;17.10;1.00
15937;DHT22;9163;48.818;8.976;2023-04-06T11:13:50;17.60;1.00
15937;DHT22;9163;48.818;8.976;2023-04-06T11:16:19;18.60;1.00
15937;DHT22;9163;48.818;8.976;2023-04-06T11:18:53;18.60;1.00
15937;DHT22;9163;48.818;8.976;2023-04-06T11:21:32;19.10;1.00
15937;DHT22;9163;48.818;8.976;2023-04-06T11:24:08;19.60;1.00
15937;DHT22;9163;48.818;8.976;2023-04-06T11:26:43;19.60;1.00
15937;DHT22;9163;48.818;8.976;2023-04-06T11:29:12;19.40;1.00
15937;DHT22;9163;48.818;8.976;2023-04-06T11:31:41;19.40;1.00
15937;DHT22;9163;48.818;8.976;2023-04-06T11:34:10;18.80;1.00
15937;DHT22;9163;48.818;8.976;2023-04-06T11:36:40;17.70;1.00
15937;DHT22;9163;48.818;8.976;2023-04-06T11:39:08;17.30;1.00
15937;DHT22;9163;48.818;8.976;2023-04-06T11:41:36;17.00;1.00
15937;DHT22;9163;48.818;8.976;2023-04-06T11:44:05;16.30;1.00
15937;DHT22;9163;48.818;8.976;2023-04-06T11:46:33;17.30;1.00
15937;DHT22;9163;48.818;8.976;2023-04-06T11:49:00;17.80;1.00
15937;DHT22;9163;48.818;8.976;2023-04-06T11:51:28;18.50;1.00
15937;DHT22;9163;48.818;8.976;2023-04-06T11:53:55;18.50;1.00
15937;DHT22;9163;48.818;8.976;2023-04-06T11:56:27;17.40;1.00
15937;DHT22;9163;48.818;8.976;2023-04-06T11:58:55;17.00;1.00
15937;DHT22;9163;48.818;8.976;2023-04-06T12:01:25;16.30;1.00
15937;DHT22;9163;48.818;8.976;2023-04-06T12:03:52;15.40;1.00
15937;DHT22;9163;48.818;8.976;2023-04-06T12:06:20;15.50;1.00
15937;DHT22;9163;48.818;8.976;2023-04-06T12:08:47;16.40;1.00
15937;DHT22;9163;48.818;8.976;2023-04-06T12:11:14;17.40;1.00
15937;DHT22;9163;48.818;8.976;2023-04-06T12:13:42;18.00;1.00
15937;DHT22;9163;48.818;8.976;2023-04-06T12:16:09;17.40;1.00
15937;DHT22;9163;48.818;8.976;2023-04-06T12:18:38;17.20;1.00
15937;DHT22;9163;48.818;8.976;2023-04-06T12:21:05;16.60;1.00
15937;DHT22;9163;48.818;8.976;2023-04-06T12:23:32;16.60;1.00
15937;DHT22;9163;48.818;8.976;2023-04-06T12:26:00;16.70;1.00
15937;DHT22;9163;48.818;8.976;2023-04-06T12:28:28;16.00;1.00
15937;DHT22;9163;48.818;8.976;2023-04-06T12:30:55;16.00;1.00
15937;DHT22;9163;48.818;8.976;2023-04-06T12:33:22;17.10;1.00
15937;DHT22;9163;48.818;8.976;2023-04-06T12:35:51;17.80;1.00
15937;DHT22;9163;48.818;8.976;2023-04-06T12:38:18;17.20;1.00
15937;DHT22;9163;48.818;8.976;2023-04-06T12:40:46;17.20;1.00
15937;DHT22;9163;48.818;8.976;2023-04-06T12:43:13;17.80;1.00
15937;DHT22;9163;48.818;8.976;2023-04-06T12:45:41;18.60;1.00
15937;DHT22;9163;48.818;8.976;2023-04-06T12:48:08;18.80;1.00
15937;DHT22;9163;48.818;8.976;2023-04-06T12:50:35;19.30;1.00
15937;DHT22;9163;48.818;8.976;2023-04-06T12:53:04;20.10;1.00
15937;DHT22;9163;48.818;8.976;2023-04-06T12:55:31;19.90;1.00
15937;DHT22;9163;48.818;8.976;2023-04-06T12:58:01;19.00;1.00
15937;DHT22;9163;48.818;8.976;2023-04-06T13:00:29;18.80;1.00
15937;DHT22;9163;48.818;8.976;2023-04-06T13:02:56;18.80;1.00
15937;DHT22;9163;48.818;8.976;2023-04-06T13:05:24;18.30;1.00
15937;DHT22;9163;48.818;8.976;2023-04-06T13:07:51;18.20;1.00
15937;DHT22;9163;48.818;8.976;2023-04-06T13:10:19;18.20;1.00
15937;DHT22;9163;48.818;8.976;2023-04-06T13:12:47;18.50;1.00
15937;DHT22;9163;48.818;8.976;2023-04-06T13:15:14;18.50;1.00
15937;DHT22;9163;48.818;8.976;2023-04-06T13:17:42;18.20;1.00
15937;DHT22;9163;48.818;8.976;2023-04-06T13:20:09;18.50;1.00
15937;DHT22;9163;48.818;8.976;2023-04-06T13:22:37;18.40;1.00
15937;DHT22;9163;48.818;8.976;2023-04-06T13:25:04;19.00;1.00
15937;DHT22;9163;48.818;8.976;2023-04-06T13:27:33;19.40;1.00
15937;DHT22;9163;48.818;8.976;2023-04-06T13:30:02;20.00;1.00
15937;DHT22;9163;48.818;8.976;2023-04-06T13:32:29;20.50;1.00
15937;DHT22;9163;48.818;8.976;2023-04-06T13:34:57;20.80;1.00
15937;DHT22;9163;48.818;8.976;2023-04-06T13:37:26;20.70;1.00
15937;DHT22;9163;48.818;8.976;2023-04-06T13:39:53;18.30;1.00
15937;DHT22;9163;48.818;8.976;2023-04-06T13:42:20;18.10;1.00
15937;DHT22;9163;48.818;8.976;2023-04-06T13:44:49;18.50;1.00
15937;DHT22;9163;48.818;8.976;2023-04-06T13:47:17;17.50;1.00
15937;DHT22;9163;48.818;8.976;2023-04-06T13:49:44;17.40;1.00
15937;DHT22;9163;48.818;8.976;2023-04-06T13:52:12;17.10;1.00
15937;DHT22;9163;48.818;8.976;2023-04-06T13:54:39;17.50;1.00
15937;DHT22;9163;48.818;8.976;2023-04-06T13:57:06;17.60;1.00
15937;DHT22;9163;48.818;8.976;2023-04-06T13:59:34;17.00;1.00
15937;DHT22;9163;48.818;8.976;2023-04-06T14:02:04;16.30;1.00
15937;DHT22;9163;48.818;8.976;2023-04-06T14:04:31;15.50;1.00
15937;DHT22;9163;48.818;8.976;2023-04-06T14:06:59;15.50;1.00
15937;DHT22;9163;48.818;8.976;2023-04-06T14:09:27;16.10;1.00
15937;DHT22;9163;48.818;8.976;2023-04-06T14:11:55;15.90;1.00
15937;DHT22;9163;48.818;8.976;2023-04-06T14:14:22;16.10;1.00
15937;DHT22;9163;48.818;8.976;2023-04-06T14:16:49;16.30;1.00
15937;DHT22;9163;48.818;8.976;2023-04-06T14:19:18;15.50;1.00
15937;DHT22;9163;48.818;8.976;2023-04-06T14:21:46;16.00;1.00
15937;DHT22;9163;48.818;8.976;2023-04-06T14:24:14;16.50;1.00
15937;DHT22;9163;48.818;8.976;2023-04-06T14:26:43;17.00;1.00
15937;DHT22;9163;48.818;8.976;2023-04-06T14:29:10;17.20;1.00
15937;DHT22;9163;48.818;8.976;2023-04-06T14:31:38;17.10;1.00
15937;DHT22;9163;48.818;8.976;2023-04-06T14:34:05;17.10;1.00
15937;DHT22;9163;48.818;8.976;2023-04-06T14:36:33;17.30;1.00
15937;DHT22;9163;48.818;8.976;2023-04-06T14:39:04;17.20;1.00
15937;DHT22;9163;48.818;8.976;2023-04-06T14:41:32;17.30;1.00
15937;DHT22;9163;48.818;8.976;2023-04-06T14:44:00;17.30;1.00
15937;DHT22;9163;48.818;8.976;2023-04-06T14:46:28;16.80;1.00
15937;DHT22;9163;48.818;8.976;2023-04-06T14:48:55;17.10;1.00
15937;DHT22;9163;48.818;8.976;2023-04-06T14:51:24;17.10;1.00
15937;DHT22;9163;48.818;8.976;2023-04-06T14:53:52;17.10;1.00
15937;DHT22;9163;48.818;8.976;2023-04-06T14:56:20;17.00;1.00
15937;DHT22;9163;48.818;8.976;2023-04-06T14:58:48;16.90;1.00
15937;DHT22;9163;48.818;8.976;2023-04-06T15:01:17;16.90;1.00
15937;DHT22;9163;48.818;8.976;2023-04-06T15:03:45;16.90;1.00
15937;DHT22;9163;48.818;8.976;2023-04-06T15:06:13;16.50;1.00
15937;DHT22;9163;48.818;8.976;2023-04-06T15:08:42;16.40;1.00
15937;DHT22;9163;48.818;8.976;2023-04-06T15:11:11;16.10;1.00
15937;DHT22;9163;48.818;8.976;2023-04-06T15:13:39;16.00;1.00
15937;DHT22;9163;48.818;8.976;2023-04-06T15:16:07;16.00;1.00
15937;DHT22;9163;48.818;8.976;2023-04-06T15:18:35;15.90;1.00
15937;DHT22;9163;48.818;8.976;2023-04-06T15:21:02;15.70;1.00
15937;DHT22;9163;48.818;8.976;2023-04-06T15:23:29;15.60;1.00
15937;DHT22;9163;48.818;8.976;2023-04-06T15:25:57;15.20;1.00
15937;DHT22;9163;48.818;8.976;2023-04-06T15:28:26;15.40;1.00
15937;DHT22;9163;48.818;8.976;2023-04-06T15:30:54;15.20;1.00
15937;DHT22;9163;48.818;8.976;2023-04-06T15:33:23;15.30;1.00
15937;DHT22;9163;48.818;8.976;2023-04-06T15:35:51;15.20;1.00
15937;DHT22;9163;48.818;8.976;2023-04-06T15:38:18;14.90;1.00
15937;DHT22;9163;48.818;8.976;2023-04-06T15:40:49;14.70;1.00
15937;DHT22;9163;48.818;8.976;2023-04-06T15:43:16;14.60;1.00
15937;DHT22;9163;48.818;8.976;2023-04-06T15:45:45;14.60;1.00
15937;DHT22;9163;48.818;8.976;2023-04-06T15:48:12;14.40;1.00
15937;DHT22;9163;48.818;8.976;2023-04-06T15:50:39;14.20;1.00
15937;DHT22;9163;48.818;8.976;2023-04-06T15:53:07;14.00;1.00
15937;DHT22;9163;48.818;8.976;2023-04-06T15:55:34;14.00;1.00
15937;DHT22;9163;48.818;8.976;2023-04-06T15:58:01;13.90;1.00
15937;DHT22;9163;48.818;8.976;2023-04-06T16:00:28;13.70;1.00
15937;DHT22;9163;48.818;8.976;2023-04-06T16:02:57;13.60;1.00
15937;DHT22;9163;48.818;8.976;2023-04-06T16:05:24;13.60;1.00